Foraker, Oklahoma
Current Conditions -  °F | °C
As of 9:12 AM on Friday 31 Oct 2014 (Local Time) from KPNC Reporting Station
Scattered Clouds Scattered Clouds  
Wind Chill: 38°   Ceiling: Unl
Heat Index: 46°   Visibility: 9mi
Dew Point: 35°   Wind: 21mph
Humidity: 66%   Direction: 360°N
Pressure: 30.44"   Gusts: 29mph
Location:  36.8783°N, 96.6155°W
Report Text: KPNC 311412Z AUTO 36018G25KT 9SM SCT026 08/02 A3044 RMK AO2 T00780017
Loading
Personal Weather Stations






























Interactive Weather Map
Tropical Storm Tracking
New forecast layout! Learn more

10-Day Weather Forecast

Advertisements
Track Severe Weather on mobile